Time;durP1;ratioP1;P1;durP2;ratioP2;P2;SDS_P1;SDS_P2;PMS_P1;PMS_P2;Temp;Humidity;BMP_temperature;BMP_pressure;BME280_temperature;BME280_humidity;BME280_pressure;Samples;Min_cycle;Max_cycle;Signal;HPM_P1;HPM_P2
2021/06/23 00:00:07;;;;;;;13.58;4.67;;;;;;;18.56;82.10;100069.16;1717835;83;21489;-78
2021/06/23 00:02:36;;;;;;;14.10;4.58;;;;;;;18.52;82.00;100057.03;1732931;82;21053;-78
2021/06/23 00:05:03;;;;;;;8.68;3.55;;;;;;;18.52;82.16;100068.16;1747573;82;21053;-79
2021/06/23 00:07:31;;;;;;;11.05;3.50;;;;;;;18.50;82.24;100067.44;1747318;82;21249;-77
2021/06/23 00:09:58;;;;;;;10.82;4.72;;;;;;;18.49;82.06;100065.23;1747544;82;21057;-77
2021/06/23 00:12:28;;;;;;;14.85;4.92;;;;;;;18.53;81.94;100065.88;1747575;82;21052;-78
2021/06/23 00:14:54;;;;;;;14.90;4.30;;;;;;;18.54;82.04;100069.78;1742698;82;21045;-77
2021/06/23 00:17:21;;;;;;;10.30;5.00;;;;;;;18.53;82.10;100068.06;1726425;82;21109;-77
2021/06/23 00:19:47;;;;;;;16.40;5.00;;;;;;;18.51;82.30;100063.31;1739882;82;21103;-78
2021/06/23 00:22:14;;;;;;;13.78;4.62;;;;;;;18.48;82.48;100062.20;1723620;82;21119;-81
2021/06/23 00:24:42;;;;;;;13.13;4.35;;;;;;;18.45;82.59;100057.10;1747647;82;21073;-80
2021/06/23 00:27:09;;;;;;;18.80;5.22;;;;;;;18.44;82.49;100070.05;1733712;81;21088;-79
2021/06/23 00:29:35;;;;;;;20.77;4.95;;;;;;;18.43;82.44;100060.36;1717984;83;21077;-80
2021/06/23 00:32:05;;;;;;;14.33;4.90;;;;;;;18.43;82.22;100066.53;1717784;83;21216;-80
2021/06/23 00:34:32;;;;;;;13.13;4.60;;;;;;;18.44;82.02;100062.05;1689807;83;21526;-85
2021/06/23 00:37:03;;;;;;;19.30;4.80;;;;;;;18.47;81.88;100067.16;1722443;82;21604;-86
2021/06/23 00:39:30;;;;;;;12.45;4.37;;;;;;;18.50;81.83;100065.62;1739920;82;21069;-86
2021/06/23 00:41:57;;;;;;;15.13;4.60;;;;;;;18.51;81.74;100065.98;1749651;82;21089;-84
2021/06/23 00:44:24;;;;;;;16.95;4.90;;;;;;;18.51;81.88;100071.31;1750909;82;21166;-84
2021/06/23 00:46:52;;;;;;;12.68;5.40;;;;;;;18.48;82.22;100066.70;1749347;82;20951;-87
2021/06/23 00:49:19;;;;;;;19.10;4.97;;;;;;;18.41;82.44;100064.45;1748397;82;21061;-86
2021/06/23 00:51:48;;;;;;;13.83;4.47;;;;;;;18.37;82.63;100058.11;1743775;82;21276;-85
2021/06/23 00:54:26;;;;;;;16.57;4.60;;;;;;;18.33;82.70;100059.28;1717327;83;21579;-78
2021/06/23 00:56:56;;;;;;;12.78;4.95;;;;;;;18.30;82.77;100062.17;1717710;83;21160;-76
2021/06/23 00:59:23;;;;;;;13.38;5.20;;;;;;;18.26;82.90;100061.52;1691054;83;21623;-78
2021/06/23 01:01:51;;;;;;;17.67;5.00;;;;;;;18.23;83.09;100066.59;1718156;83;21136;-77
2021/06/23 01:04:20;;;;;;;13.78;5.08;;;;;;;18.21;83.31;100071.17;1717787;83;21105;-79
2021/06/23 01:06:48;;;;;;;18.07;5.50;;;;;;;18.17;83.51;100068.34;1718251;83;21045;-79
2021/06/23 01:09:16;;;;;;;13.43;5.12;;;;;;;18.14;83.87;100064.57;1691324;83;21163;-79
2021/06/23 01:12:19;;;;;;;11.73;5.30;;;;;;;18.12;84.15;100064.30;1717702;83;21045;-78
2021/06/23 01:14:46;;;;;;;15.15;4.50;;;;;;;18.08;84.21;100062.32;1691409;83;21080;-78
2021/06/23 01:17:16;;;;;;;18.40;5.55;;;;;;;18.05;84.44;100061.21;1740597;82;21058;-78
2021/06/23 01:19:45;;;;;;;12.37;4.90;;;;;;;18.04;84.49;100064.84;1679618;85;21601;-79
2021/06/23 01:22:16;;;;;;;9.73;4.80;;;;;;;18.04;84.47;100067.52;1746018;81;21209;-79
2021/06/23 01:24:44;;;;;;;5.60;3.22;;;;;;;18.06;84.36;100069.59;1653900;85;21154;-78
2021/06/23 01:27:11;;;;;;;13.70;4.42;;;;;;;18.08;84.28;100068.14;1739657;82;21067;-80
2021/06/23 01:29:38;;;;;;;8.33;3.70;;;;;;;18.10;84.21;100068.40;1735331;82;21043;-79
2021/06/23 01:32:08;;;;;;;12.13;4.28;;;;;;;18.10;84.18;100068.40;1731675;82;21574;-80
2021/06/23 01:34:36;;;;;;;13.55;4.33;;;;;;;18.11;84.21;100070.61;1735451;82;21141;-77
2021/06/23 01:37:03;;;;;;;12.98;4.40;;;;;;;18.11;84.24;100060.80;1728974;82;21240;-78
2021/06/23 01:39:32;;;;;;;8.43;4.17;;;;;;;18.12;84.14;100061.64;1719171;83;21028;-78
2021/06/23 01:41:59;;;;;;;12.45;4.60;;;;;;;18.10;84.09;100057.73;1718994;83;21122;-79
2021/06/23 01:44:28;;;;;;;11.93;4.20;;;;;;;18.09;84.16;100049.88;1719109;82;21047;-79
2021/06/23 01:47:01;;;;;;;14.75;4.40;;;;;;;18.00;84.32;100050.03;1719227;82;21324;-79
2021/06/23 01:49:30;;;;;;;6.92;4.50;;;;;;;18.00;84.80;100059.35;1702160;83;21055;-81
2021/06/23 01:51:57;;;;;;;15.00;4.47;;;;;;;17.94;85.20;100047.77;1708676;83;21051;-79
2021/06/23 01:54:24;;;;;;;12.20;4.00;;;;;;;17.96;85.05;100052.52;1719521;83;21735;-85
2021/06/23 01:56:51;;;;;;;11.68;4.17;;;;;;;17.98;84.88;100057.27;1719310;82;21054;-84
2021/06/23 01:59:20;;;;;;;14.55;4.22;;;;;;;18.01;84.77;100057.05;1714449;82;21596;-83
2021/06/23 02:02:15;;;;;;;12.20;4.65;;;;;;;18.02;84.66;100054.28;1701750;84;21041;-85
2021/06/23 02:05:07;;;;;;;9.05;3.77;;;;;;;18.04;84.58;100055.52;1703666;84;21493;-81
2021/06/23 02:07:59;;;;;;;10.90;4.45;;;;;;;18.05;84.64;100047.05;1704832;83;21046;-82
2021/06/23 02:10:52;;;;;;;15.70;4.45;;;;;;;18.06;84.49;100054.94;1704587;84;21102;-83
2021/06/23 02:14:12;;;;;;;9.43;3.62;;;;;;;18.08;84.66;100052.99;1702252;84;21794;-82
2021/06/23 02:16:50;;;;;;;7.35;4.42;;;;;;;18.06;84.82;100060.27;1695778;84;21034;-82
2021/06/23 02:19:19;;;;;;;8.75;3.90;;;;;;;18.03;84.86;100056.47;1698616;84;21054;-83
2021/06/23 02:21:51;;;;;;;12.37;4.92;;;;;;;18.05;84.77;100054.55;1696866;84;21564;-83
2021/06/23 02:24:20;;;;;;;10.05;4.03;;;;;;;18.07;84.72;100056.63;1655533;84;21181;-85
2021/06/23 02:26:50;;;;;;;8.78;4.08;;;;;;;18.10;84.69;100054.23;1713424;82;21029;-83
2021/06/23 02:29:19;;;;;;;11.40;4.00;;;;;;;18.14;84.67;100049.91;1713018;82;21565;-79
2021/06/23 02:31:46;;;;;;;12.20;3.83;;;;;;;18.19;84.60;100055.77;1732928;82;21098;-78
2021/06/23 02:34:14;;;;;;;10.95;3.67;;;;;;;18.23;84.42;100051.09;1733228;82;21552;-78
2021/06/23 02:36:43;;;;;;;9.78;3.75;;;;;;;18.28;84.25;100054.28;1732305;81;21110;-79
2021/06/23 02:39:15;;;;;;;9.55;2.60;;;;;;;18.35;83.99;100060.03;1747663;82;21108;-80
2021/06/23 02:41:39;;;;;;;4.78;2.67;;;;;;;18.42;83.88;100057.30;1746702;82;21537;-80
2021/06/23 02:44:07;;;;;;;6.67;3.12;;;;;;;18.52;83.68;100064.16;1747994;82;21080;-79
2021/06/23 02:46:34;;;;;;;6.10;2.47;;;;;;;18.63;83.29;100063.79;1747726;82;21053;-78
2021/06/23 02:49:03;;;;;;;6.70;3.08;;;;;;;18.74;83.11;100063.48;1739297;82;21037;-80
2021/06/23 02:51:41;;;;;;;8.98;3.60;;;;;;;18.86;82.64;100067.95;1747114;82;21167;-80
2021/06/23 02:54:10;;;;;;;10.00;3.65;;;;;;;18.97;82.07;100066.70;1747772;82;21694;-81
2021/06/23 02:56:48;;;;;;;7.35;3.20;;;;;;;19.13;81.44;100072.26;1743723;82;21592;-80
2021/06/23 02:59:15;;;;;;;15.32;3.90;;;;;;;19.26;80.81;100066.39;1747888;82;21109;-79
2021/06/23 03:01:43;;;;;;;10.90;4.03;;;;;;;19.38;80.31;100068.13;1726534;82;21124;-80
2021/06/23 03:04:15;;;;;;;14.53;3.75;;;;;;;19.49;79.60;100069.52;1716714;83;21129;-79
2021/06/23 03:06:44;;;;;;;10.85;3.50;;;;;;;19.61;79.22;100070.90;1717376;82;21057;-78
2021/06/23 03:09:11;;;;;;;22.30;4.75;;;;;;;19.73;78.70;100068.66;1692811;83;22127;-80
2021/06/23 03:11:41;;;;;;;16.90;2.95;;;;;;;19.85;78.37;100075.75;1678695;83;21080;-79
2021/06/23 03:14:25;;;;;;;10.80;3.45;;;;;;;19.97;77.63;100075.29;1692504;84;21095;-83
2021/06/23 03:16:53;;;;;;;11.55;3.70;;;;;;;20.13;77.05;100080.30;1683896;83;21108;-80
2021/06/23 03:19:21;;;;;;;7.92;2.90;;;;;;;20.29;76.44;100072.78;1718266;83;21065;-82
2021/06/23 03:21:48;;;;;;;5.95;3.12;;;;;;;20.46;75.81;100074.61;1718731;83;21617;-84
2021/06/23 03:24:16;;;;;;;16.12;3.60;;;;;;;20.65;75.17;100076.70;1718514;83;21100;-83
2021/06/23 03:26:45;;;;;;;11.63;3.30;;;;;;;20.83;74.48;100067.68;1730086;82;21620;-83
2021/06/23 03:29:30;;;;;;;16.65;3.75;;;;;;;21.04;73.59;100063.25;1748731;82;21144;-84
2021/06/23 03:31:58;;;;;;;9.88;3.77;;;;;;;21.24;72.65;100066.12;1747500;82;21104;-82
2021/06/23 03:34:27;;;;;;;11.05;3.80;;;;;;;21.47;71.93;100066.92;1747965;82;21065;-83
2021/06/23 03:37:01;;;;;;;10.45;3.60;;;;;;;21.67;71.41;100063.89;1747286;82;21007;-79
2021/06/23 03:39:30;;;;;;;12.68;3.47;;;;;;;21.86;70.35;100062.70;1747255;82;21583;-79
2021/06/23 03:41:58;;;;;;;12.07;3.22;;;;;;;22.07;69.40;100065.38;1746871;82;21797;-79
2021/06/23 03:44:25;;;;;;;10.78;3.22;;;;;;;22.29;68.43;100063.06;1747437;82;21058;-78
2021/06/23 03:46:55;;;;;;;10.78;3.30;;;;;;;22.49;67.14;100063.98;1747396;82;21563;-79
2021/06/23 03:49:23;;;;;;;8.55;3.00;;;;;;;22.71;65.72;100068.31;1747383;82;21565;-78
2021/06/23 03:51:53;;;;;;;13.35;3.22;;;;;;;22.93;64.23;100056.98;1747394;82;21248;-75
2021/06/23 03:54:22;;;;;;;10.93;2.95;;;;;;;23.11;62.81;100056.70;1747839;82;21833;-76
2021/06/23 03:56:50;;;;;;;9.00;3.20;;;;;;;23.36;61.69;100062.52;1747706;82;21697;-76
2021/06/23 03:59:18;;;;;;;18.85;3.00;;;;;;;23.60;60.72;100060.27;1747625;82;21045;-78
2021/06/23 04:01:46;;;;;;;14.63;3.05;;;;;;;23.82;59.41;100060.98;1747677;82;21045;-79
2021/06/23 04:04:15;;;;;;;12.60;3.25;;;;;;;24.04;58.20;100055.28;1748008;82;21687;-82
2021/06/23 04:06:55;;;;;;;11.20;3.33;;;;;;;24.24;56.90;100049.83;1737498;82;21333;-80
2021/06/23 04:09:23;;;;;;;11.95;3.02;;;;;;;24.41;56.65;100050.88;1747408;82;21109;-78
2021/06/23 04:11:55;;;;;;;13.93;3.30;;;;;;;24.55;56.10;100050.45;1731252;82;21072;-76
2021/06/23 04:14:22;;;;;;;9.55;2.75;;;;;;;24.74;55.75;100046.80;1717994;83;21559;-76
2021/06/23 04:16:52;;;;;;;13.62;2.80;;;;;;;24.96;54.72;100043.34;1717674;83;21061;-77
2021/06/23 04:19:20;;;;;;;10.93;2.85;;;;;;;25.18;54.31;100045.62;1718368;83;21929;-79
2021/06/23 04:21:49;;;;;;;13.30;2.85;;;;;;;25.43;53.71;100044.52;1716846;83;21084;-77
2021/06/23 04:24:16;;;;;;;13.38;2.47;;;;;;;25.66;52.75;100039.49;1717977;83;21061;-77
2021/06/23 04:26:45;;;;;;;7.35;2.60;;;;;;;25.88;52.69;100039.50;1717983;83;21108;-77
2021/06/23 04:29:13;;;;;;;10.23;2.55;;;;;;;26.14;51.02;100040.36;1717977;83;21132;-76
2021/06/23 04:31:41;;;;;;;11.25;3.08;;;;;;;26.35;50.64;100041.83;1726453;82;22333;-78
2021/06/23 04:34:09;;;;;;;12.63;2.83;;;;;;;26.53;50.09;100033.13;1735507;82;21651;-80
2021/06/23 04:36:36;;;;;;;10.10;2.70;;;;;;;26.75;48.92;100027.66;1732385;82;21045;-80
2021/06/23 04:39:04;;;;;;;11.60;2.37;;;;;;;26.91;49.09;100024.16;1730888;81;21042;-78
2021/06/23 04:41:33;;;;;;;11.68;2.80;;;;;;;27.08;48.65;100025.55;1734549;82;22215;-80
2021/06/23 04:44:02;;;;;;;12.98;2.33;;;;;;;27.25;48.03;100030.52;1731346;82;21968;-79
2021/06/23 04:46:33;;;;;;;9.25;2.40;;;;;;;27.44;47.34;100028.00;1747361;82;21002;-81
2021/06/23 04:49:02;;;;;;;11.05;2.87;;;;;;;27.61;47.41;100026.99;1748418;82;21715;-79
2021/06/23 04:51:31;;;;;;;12.70;2.50;;;;;;;27.78;46.27;100025.95;1729309;82;21077;-75
2021/06/23 04:53:59;;;;;;;12.05;2.20;;;;;;;27.94;45.69;100021.56;1721011;82;21147;-78
2021/06/23 04:56:25;;;;;;;13.35;2.80;;;;;;;28.03;45.64;100020.53;1721155;80;21111;-78
2021/06/23 04:58:52;;;;;;;14.80;2.95;;;;;;;28.13;45.40;100018.47;1741725;82;21057;-76
2021/06/23 05:01:22;;;;;;;19.55;2.70;;;;;;;28.24;44.97;100024.03;1729057;82;21100;-81
2021/06/23 05:03:49;;;;;;;9.85;2.20;;;;;;;28.28;44.57;100020.48;1747653;82;21069;-82
2021/06/23 05:06:16;;;;;;;15.58;2.52;;;;;;;28.27;44.65;100029.08;1748425;82;21065;-77
2021/06/23 05:08:45;;;;;;;17.23;3.37;;;;;;;28.30;44.61;100036.02;1747935;82;21529;-77
2021/06/23 05:11:14;;;;;;;10.65;2.33;;;;;;;28.26;44.06;100032.83;1747846;82;21068;-77
2021/06/23 05:13:42;;;;;;;19.62;2.90;;;;;;;28.19;44.13;100036.73;1732282;82;21074;-77
2021/06/23 05:16:09;;;;;;;17.67;2.52;;;;;;;28.14;44.07;100038.28;1729230;82;21073;-76
2021/06/23 05:18:36;;;;;;;15.00;3.08;;;;;;;28.15;44.44;100042.15;1722498;82;21137;-74
2021/06/23 05:21:04;;;;;;;16.20;2.72;;;;;;;28.18;44.19;100033.70;1722555;82;21193;-74
2021/06/23 05:23:31;;;;;;;19.23;3.00;;;;;;;28.18;44.04;100035.06;1727164;82;21073;-79
2021/06/23 05:25:59;;;;;;;23.02;3.10;;;;;;;28.17;44.49;100045.53;1723351;82;21650;-77
2021/06/23 05:28:26;;;;;;;18.65;2.70;;;;;;;28.19;44.87;100048.91;1732008;82;21082;-79
2021/06/23 05:30:53;;;;;;;18.20;3.22;;;;;;;28.26;44.57;100048.23;1724822;82;21143;-79
2021/06/23 05:33:20;;;;;;;15.50;3.02;;;;;;;28.29;44.69;100039.75;1743285;82;21239;-81
2021/06/23 05:35:47;;;;;;;17.25;2.62;;;;;;;28.35;44.91;100037.71;1742154;82;21106;-75
2021/06/23 05:38:14;;;;;;;11.45;2.50;;;;;;;28.44;44.58;100050.20;1743522;82;21054;-79
2021/06/23 05:40:42;;;;;;;12.15;2.58;;;;;;;28.46;44.52;100046.81;1726254;82;21094;-77
2021/06/23 05:43:09;;;;;;;13.58;2.60;;;;;;;28.52;44.32;100038.52;1710611;82;21094;-81
2021/06/23 05:45:37;;;;;;;20.02;2.70;;;;;;;28.69;44.10;100037.92;1710262;82;21989;-80
2021/06/23 05:48:05;;;;;;;15.58;3.00;;;;;;;28.87;44.20;100029.02;1710622;82;21124;-78
2021/06/23 05:50:31;;;;;;;12.78;2.72;;;;;;;29.12;44.14;100024.84;1720308;82;21041;-79
2021/06/23 05:52:58;;;;;;;10.23;2.12;;;;;;;29.35;43.43;100018.07;1707931;82;21105;-79
2021/06/23 05:55:26;;;;;;;10.20;2.62;;;;;;;29.52;42.72;100014.70;1698005;82;21641;-80
2021/06/23 05:57:55;;;;;;;10.63;2.70;;;;;;;29.72;42.29;100021.86;1705015;82;21198;-79
2021/06/23 06:00:23;;;;;;;11.10;2.62;;;;;;;29.89;42.11;100014.73;1702423;82;21077;-77
2021/06/23 06:02:50;;;;;;;17.30;3.70;;;;;;;30.05;41.88;100011.53;1718710;82;20994;-76
2021/06/23 06:05:17;;;;;;;11.05;2.90;;;;;;;30.26;41.51;100006.22;1720389;82;22328;-79
2021/06/23 06:07:45;;;;;;;16.42;2.98;;;;;;;30.35;40.84;100007.48;1717483;82;21177;-78
2021/06/23 06:10:14;;;;;;;12.28;2.83;;;;;;;30.35;41.00;100006.97;1714849;82;21643;-77
2021/06/23 06:12:40;;;;;;;15.78;2.83;;;;;;;30.56;41.40;100003.47;1714048;82;21708;-78
2021/06/23 06:15:09;;;;;;;8.75;2.60;;;;;;;30.56;41.40;100003.47;1657745;85;21065;-77
2021/06/23 06:17:36;;;;;;;10.65;2.60;;;;;;;30.73;41.03;100004.92;1684822;84;21096;-77
2021/06/23 06:20:06;;;;;;;9.13;2.77;;;;;;;30.86;40.78;100003.44;1664949;84;21121;-77
2021/06/23 06:22:33;;;;;;;16.07;2.77;;;;;;;31.05;39.98;100004.16;1679927;84;21137;-77
2021/06/23 06:25:00;;;;;;;14.50;2.58;;;;;;;31.14;39.63;100006.23;1670178;85;21121;-76
2021/06/23 06:27:27;;;;;;;13.35;2.42;;;;;;;31.18;39.75;99998.02;1662865;84;21567;-79
2021/06/23 06:29:54;;;;;;;9.50;3.05;;;;;;;31.29;39.50;99993.91;1673566;84;21650;-80
2021/06/23 06:32:22;;;;;;;12.98;2.83;;;;;;;31.49;38.53;99988.17;1668977;84;21578;-80
2021/06/23 06:34:49;;;;;;;15.78;2.80;;;;;;;31.70;38.62;99983.72;1675758;84;21158;-80
2021/06/23 06:37:21;;;;;;;16.27;2.90;;;;;;;31.80;38.63;99978.79;1668883;84;21528;-82
2021/06/23 06:39:50;;;;;;;16.12;3.10;;;;;;;31.84;38.73;99977.36;1656268;85;21120;-79
2021/06/23 06:42:19;;;;;;;13.18;2.77;;;;;;;31.92;38.43;99974.46;1671865;85;21093;-79
2021/06/23 06:44:46;;;;;;;11.60;2.50;;;;;;;32.02;38.38;99985.02;1661876;86;21157;-81
2021/06/23 06:47:14;;;;;;;12.78;2.67;;;;;;;32.10;37.71;99984.04;1672235;85;21173;-79
2021/06/23 06:49:42;;;;;;;13.55;3.17;;;;;;;32.24;37.45;99974.89;1725321;82;21042;-79
2021/06/23 06:52:09;;;;;;;9.83;2.60;;;;;;;32.51;37.72;99976.38;1717837;82;21065;-78
2021/06/23 06:54:36;;;;;;;13.05;2.85;;;;;;;32.86;36.43;99972.22;1727051;82;21045;-80
2021/06/23 06:57:04;;;;;;;13.98;2.70;;;;;;;33.10;36.26;99987.18;1717768;82;21637;-79
2021/06/23 06:59:31;;;;;;;14.78;2.70;;;;;;;33.27;35.58;99988.97;1717314;82;21620;-77
2021/06/23 07:01:59;;;;;;;8.30;2.58;;;;;;;33.35;35.81;99987.42;1717892;82;21112;-78
2021/06/23 07:04:26;;;;;;;7.50;2.25;;;;;;;33.49;35.76;99991.83;1717698;82;21073;-79
2021/06/23 07:06:53;;;;;;;13.48;2.80;;;;;;;33.74;35.25;99996.69;1714161;82;21024;-79
2021/06/23 07:09:21;;;;;;;6.70;2.50;;;;;;;34.08;35.26;99996.94;1712671;82;21337;-79
2021/06/23 07:11:48;;;;;;;11.88;3.47;;;;;;;34.33;34.30;99993.02;1724353;82;21122;-79
2021/06/23 07:14:18;;;;;;;14.28;3.45;;;;;;;34.60;33.70;99990.16;1738270;82;21572;-80
2021/06/23 07:16:46;;;;;;;7.35;3.27;;;;;;;34.78;33.01;99997.67;1730367;82;20995;-80
2021/06/23 07:19:14;;;;;;;10.48;2.98;;;;;;;34.98;32.86;99997.57;1722330;82;21081;-79
2021/06/23 07:21:42;;;;;;;12.88;3.47;;;;;;;35.03;32.13;100000.48;1731780;82;21093;-80
2021/06/23 07:24:09;;;;;;;17.55;4.05;;;;;;;34.98;32.04;99989.36;1714179;82;21182;-80
2021/06/23 07:26:36;;;;;;;10.85;3.42;;;;;;;34.81;32.57;99993.98;1723701;82;21611;-80
2021/06/23 07:29:06;;;;;;;8.93;3.00;;;;;;;34.57;33.01;99991.97;1722156;82;21370;-79
2021/06/23 07:36:42;;;;;;;9.00;2.62;;;;;;;34.55;33.91;99985.87;1732928;82;21521;-81
2021/06/23 07:39:17;;;;;;;9.73;2.77;;;;;;;34.79;33.69;99983.80;1736722;81;21029;-79
2021/06/23 07:41:49;;;;;;;11.63;2.83;;;;;;;34.87;33.20;99979.41;1733975;82;21545;-80
2021/06/23 07:44:20;;;;;;;21.17;3.27;;;;;;;34.75;33.48;99983.91;1716438;82;21521;-81
2021/06/23 07:46:55;;;;;;;16.73;3.02;;;;;;;34.69;33.99;99980.67;1705012;84;21003;-79
2021/06/23 07:49:23;;;;;;;8.25;3.33;;;;;;;34.78;33.37;99979.36;1716784;82;21514;-78
2021/06/23 08:13:14;;;;;;;20.15;3.67;;;;;;;34.37;34.75;99994.27;1716795;82;21764;-80
2021/06/23 08:15:43;;;;;;;13.50;2.85;;;;;;;34.30;35.40;99989.86;1711986;82;21164;-79
2021/06/23 08:18:10;;;;;;;14.18;2.87;;;;;;;34.36;35.55;99988.47;1708282;82;21029;-83
2021/06/23 08:20:38;;;;;;;14.83;2.70;;;;;;;34.35;34.67;99989.55;1704752;82;21466;-84
2021/06/23 08:23:05;;;;;;;15.05;3.08;;;;;;;34.22;35.84;99996.41;1707977;82;21068;-85
2021/06/23 08:25:32;;;;;;;13.78;2.85;;;;;;;34.22;35.63;99993.68;1707223;82;21101;-85
2021/06/23 08:27:59;;;;;;;16.70;2.80;;;;;;;34.32;36.28;99989.12;1715511;82;22377;-86
2021/06/23 08:30:26;;;;;;;14.63;3.15;;;;;;;34.41;35.88;99994.13;1723698;82;21097;-85
2021/06/23 08:32:55;;;;;;;11.28;3.00;;;;;;;34.47;35.67;99989.17;1707474;82;21061;-82
2021/06/23 08:35:22;;;;;;;7.70;2.80;;;;;;;34.48;36.25;99996.30;1724452;82;21536;-84
2021/06/23 08:37:49;;;;;;;8.33;2.72;;;;;;;34.69;36.28;99992.98;1715022;82;21077;-78
2021/06/23 08:40:17;;;;;;;16.87;2.80;;;;;;;34.94;35.33;99997.70;1713632;82;21800;-79
2021/06/23 08:42:44;;;;;;;11.05;2.85;;;;;;;35.20;35.17;100001.67;1715483;82;21066;-82
2021/06/23 08:45:12;;;;;;;14.35;3.12;;;;;;;35.48;34.73;100004.52;1716378;82;21529;-82
2021/06/23 08:47:41;;;;;;;8.60;2.40;;;;;;;35.70;34.38;100001.69;1712352;82;21148;-76
2021/06/23 08:50:17;;;;;;;11.12;2.50;;;;;;;36.01;33.86;100002.67;1675382;84;21120;-77
2021/06/23 08:52:44;;;;;;;10.65;3.10;;;;;;;36.20;33.57;100002.72;1667855;84;21158;-76
2021/06/23 08:55:18;;;;;;;7.00;2.75;;;;;;;36.25;33.03;99995.47;1715237;82;21097;-74
2021/06/23 08:57:42;;;;;;;12.55;2.72;;;;;;;36.09;33.49;99994.14;1715415;81;21101;-72
2021/06/23 09:00:11;;;;;;;9.98;2.20;;;;;;;35.97;33.95;99986.37;1711506;82;21026;-73
2021/06/23 09:02:38;;;;;;;11.60;2.67;;;;;;;35.96;33.58;99980.60;1716160;82;21133;-73
2021/06/23 09:05:12;;;;;;;8.88;2.58;;;;;;;36.03;33.57;99980.00;1714667;82;21159;-71
2021/06/23 09:07:53;;;;;;;8.53;2.47;;;;;;;36.06;33.59;99974.05;1714387;82;21089;-72
2021/06/23 09:10:29;;;;;;;17.67;3.12;;;;;;;36.12;33.40;99974.55;1718185;82;21148;-72
2021/06/23 09:13:10;;;;;;;15.30;2.85;;;;;;;36.06;33.56;99969.11;1718485;82;21078;-71
2021/06/23 09:15:41;;;;;;;8.45;2.65;;;;;;;36.04;34.09;99973.44;1656914;85;21068;-72
2021/06/23 09:18:28;;;;;;;12.00;2.90;;;;;;;36.10;33.98;99975.81;1665972;85;21146;-73
2021/06/23 09:20:59;;;;;;;19.50;2.75;;;;;;;36.15;33.99;99973.25;1652535;85;21145;-72
2021/06/23 09:23:52;;;;;;;16.27;3.30;;;;;;;36.09;34.17;99973.58;1674241;84;21575;-72
2021/06/23 09:26:26;;;;;;;16.00;3.42;;;;;;;35.94;34.43;99982.73;1672392;84;22142;-72
2021/06/23 09:29:09;;;;;;;12.50;3.15;;;;;;;35.70;35.40;99978.95;1683333;84;21085;-73
2021/06/23 09:32:05;;;;;;;23.95;3.40;;;;;;;35.44;35.36;99988.22;1682087;84;21144;-73
2021/06/23 09:34:42;;;;;;;11.95;3.25;;;;;;;35.27;35.10;99985.17;1689724;84;21594;-71
2021/06/23 09:37:34;;;;;;;20.60;3.45;;;;;;;35.10;36.08;99982.11;1674845;84;21660;-73
2021/06/23 09:40:17;;;;;;;10.82;3.20;;;;;;;34.85;36.46;99993.84;1687784;83;21748;-75
2021/06/23 09:42:55;;;;;;;8.88;3.12;;;;;;;34.62;36.75;99988.08;1702776;83;21053;-72
2021/06/23 09:45:27;;;;;;;14.10;3.10;;;;;;;34.57;37.16;99996.07;1690819;84;21139;-73
2021/06/23 09:48:02;;;;;;;11.73;3.17;;;;;;;34.67;37.50;100003.30;1702683;83;21548;-73
2021/06/23 09:50:32;;;;;;;15.70;3.00;;;;;;;34.86;36.56;100001.00;1685817;84;21535;-73
2021/06/23 09:53:13;;;;;;;20.55;3.62;;;;;;;35.01;36.40;99999.86;1706670;83;21419;-73
2021/06/23 09:55:47;;;;;;;20.05;3.83;;;;;;;35.05;34.93;99997.00;1673308;84;21108;-74
2021/06/23 09:58:25;;;;;;;22.05;3.92;;;;;;;35.07;34.16;99997.08;1685567;84;21896;-73
2021/06/23 10:01:06;;;;;;;16.55;2.60;;;;;;;35.19;33.75;99991.77;1708961;83;21100;-72
2021/06/23 10:03:56;;;;;;;19.12;2.80;;;;;;;35.31;32.80;100000.09;1692669;84;21053;-74
2021/06/23 10:06:29;;;;;;;21.17;3.27;;;;;;;35.60;32.80;100001.34;1675892;84;21065;-73
2021/06/23 10:09:25;;;;;;;24.37;3.35;;;;;;;35.85;32.10;100004.09;1679772;84;21072;-73
2021/06/23 10:12:06;;;;;;;13.48;2.85;;;;;;;36.07;32.04;99999.00;1679063;84;21073;-72
2021/06/23 10:14:47;;;;;;;15.70;2.67;;;;;;;36.25;31.43;99993.27;1682805;84;21104;-73
2021/06/23 10:17:14;;;;;;;15.65;2.70;;;;;;;36.51;31.31;99988.84;1682485;84;21089;-72
2021/06/23 10:19:42;;;;;;;25.77;3.55;;;;;;;36.84;30.58;99991.70;1685425;84;21078;-73
2021/06/23 10:22:09;;;;;;;44.25;3.98;;;;;;;37.00;29.40;99993.49;1683529;84;21118;-73
2021/06/23 10:24:37;;;;;;;23.05;3.05;;;;;;;36.64;28.32;99987.84;1700422;83;21220;-72
2021/06/23 10:27:08;;;;;;;59.03;4.70;;;;;;;36.45;28.41;100005.38;1682039;84;21067;-71
2021/06/23 10:29:36;;;;;;;38.80;4.78;;;;;;;36.27;28.30;100006.22;1681717;84;21511;-74
2021/06/23 10:32:05;;;;;;;17.17;3.10;;;;;;;36.24;29.05;99991.61;1679731;84;21113;-74
2021/06/23 10:34:32;;;;;;;26.02;3.35;;;;;;;36.34;28.81;99989.16;1687481;84;21517;-73
2021/06/23 10:37:00;;;;;;;18.82;2.85;;;;;;;36.42;27.93;99991.59;1693785;83;21223;-74
2021/06/23 10:39:33;;;;;;;27.37;3.37;;;;;;;36.60;27.91;99995.40;1700365;83;21627;-75
2021/06/23 10:42:07;;;;;;;15.35;3.12;;;;;;;36.76;28.02;100001.61;1703197;83;21067;-74
2021/06/23 10:44:39;;;;;;;19.48;3.37;;;;;;;36.68;28.41;100004.16;1710169;83;22133;-73
2021/06/23 10:47:07;;;;;;;19.30;3.37;;;;;;;36.73;29.33;100002.91;1690315;84;21095;-74
2021/06/23 10:49:52;;;;;;;19.57;3.50;;;;;;;36.92;29.18;100005.07;1715601;83;21763;-73
2021/06/23 10:52:27;;;;;;;18.07;3.20;;;;;;;37.01;28.85;100003.39;1677824;84;21053;-73
2021/06/23 10:55:00;;;;;;;18.20;2.90;;;;;;;36.91;28.51;100006.16;1684854;84;21105;-72
2021/06/23 10:57:43;;;;;;;16.48;3.10;;;;;;;37.00;28.80;100005.84;1684277;84;21097;-74
2021/06/23 11:00:26;;;;;;;12.45;3.00;;;;;;;37.16;28.99;100007.95;1716015;83;21107;-73
2021/06/23 11:02:50;;;;;;;17.85;3.22;;;;;;;37.11;29.19;100012.77;1715631;83;21149;-75
2021/06/23 11:05:20;;;;;;;20.50;3.03;;;;;;;37.14;28.92;100004.05;1678601;84;21060;-73
2021/06/23 11:07:51;;;;;;;26.27;3.33;;;;;;;37.26;29.37;99995.84;1679633;84;21053;-73
2021/06/23 11:10:38;;;;;;;30.48;4.45;;;;;;;37.49;27.71;99992.84;1680413;84;21050;-75
2021/06/23 11:13:10;;;;;;;26.47;3.87;;;;;;;37.61;27.72;99997.83;1714531;83;21023;-73
2021/06/23 11:15:40;;;;;;;18.85;3.52;;;;;;;37.32;28.17;99993.53;1673004;84;22341;-74
2021/06/23 11:18:24;;;;;;;;;;;;;;;37.18;28.62;100008.55;1686516;84;21367;-76
2021/06/23 11:21:16;;;;;;;39.58;5.28;;;;;;;37.04;27.17;100016.63;1694486;84;20210;-74
2021/06/23 11:23:51;;;;;;;35.03;5.95;;;;;;;36.79;27.50;100008.03;1686495;84;21187;-75
2021/06/23 11:26:30;;;;;;;43.50;5.08;;;;;;;36.38;27.75;100005.45;1687872;84;21093;-74
2021/06/23 11:29:17;;;;;;;37.60;5.55;;;;;;;36.21;27.78;100007.95;1692945;84;21124;-74
2021/06/23 11:31:50;;;;;;;51.90;5.90;;;;;;;36.03;28.00;100012.88;1678416;84;21127;-74
2021/06/23 11:34:39;;;;;;;46.10;5.87;;;;;;;35.85;28.87;100019.70;1707859;83;22150;-73
2021/06/23 11:37:13;;;;;;;57.03;6.15;;;;;;;35.92;28.64;100016.36;1685679;84;21019;-73
2021/06/23 11:39:40;;;;;;;42.13;4.78;;;;;;;36.24;28.38;100014.91;1683476;84;21057;-74
2021/06/23 11:43:02;;;;;;;;;;;;;;;;;;;;;
2021/06/23 11:45:26;;;;;;;29.37;4.53;;;;;;;36.74;28.17;100007.86;1638883;83;21045;-75
2021/06/23 11:47:52;;;;;;;29.20;5.60;;;;;;;36.82;28.09;100012.21;1676158;84;21636;-74
2021/06/23 11:50:20;;;;;;;36.45;5.35;;;;;;;36.65;28.66;100008.73;1667181;84;21105;-75
2021/06/23 11:55:26;;;;;;;48.40;6.37;;;;;;;36.19;30.11;100007.88;1793912;78;22658;-76
2021/06/23 11:57:56;;;;;;;43.92;5.70;;;;;;;35.89;30.99;100016.28;1736807;81;21041;-78
2021/06/23 12:00:25;;;;;;;42.53;5.75;;;;;;;35.78;31.13;100013.45;1722396;83;21831;-78
2021/06/23 12:02:52;;;;;;;36.10;5.80;;;;;;;35.62;31.02;100012.95;1722731;83;21028;-80
2021/06/23 12:05:19;;;;;;;37.35;5.65;;;;;;;35.62;31.21;100017.05;1708598;82;22101;-79
2021/06/23 12:07:46;;;;;;;39.73;6.10;;;;;;;35.73;30.94;100016.87;1687711;82;21598;-79